Tropical Cyclones
[Index]
Main Index Home Page Stock Weather Photos Extreme Storms Discussion Storm News and Storm Chasing Reports Tropical Cyclones / Hurricanes / Typhoons Weather Data and Links Wild Fires / Bushfires Weather Observation Techniques Weather Picture Catalogue Tornado Pictures and Reports Stock Video Footage and DVDs for sale
Season 1976-1977 Tropical Cyclone KAREN Track Map
Season 1976-1977 Summaries: [BoM-AU] [JTWC-AU] [JTWC-SIO] [JTWC-SPAC] [JTWC-SH]
<<- Previous TC | JTWC 1976-1977 Season | Next TC ->>

click for intensity scale information  Lat/long Grid: Show Hide

 Date Labels: Show Hide

Joint Typhoon Warning Centre Cyclone Data

Name: KAREN
Number: 950 / 7719

02 Mar 1977 12:00 UTC to 09 Mar 1977 12:00 UTC

    date/time    lat    long     hPa   cat  kts
1977-03-02 12   13.9   123.7                  30          
1977-03-02 18   13.9   123.3                  35          
1977-03-03 00   14.0   122.9                  35          
1977-03-03 06   14.2   122.6                  35          
1977-03-03 12   14.4   122.4                  35          
1977-03-03 18   14.6   122.2            1     40          
1977-03-04 00   14.9   122.0            1     45          
1977-03-04 06   15.2   122.0            1     50          
1977-03-04 12   15.6   122.0            2     55          
1977-03-04 18   15.9   122.0            2     60          
1977-03-05 00   16.3   122.1            2     60          
1977-03-05 06   16.8   122.1            2     65          
1977-03-05 12   17.3   121.9            2     70          
1977-03-05 18   17.8   121.4            3     75          
1977-03-06 00   18.3   120.5            3     75          
1977-03-06 06   18.8   119.5            3     75          
1977-03-06 12   19.4   118.5            3     75          
1977-03-06 18   19.9   117.4            3     80          
1977-03-07 00   20.5   116.4            3     85          
1977-03-07 06   20.9   115.5            3     80          
1977-03-07 12   21.3   114.8            2     70          
1977-03-07 18   21.9   114.1            2     60          
1977-03-08 00   22.4   113.6            1     50          
1977-03-08 06   22.9   113.4            1     40          
1977-03-08 12   23.3   113.2                  35          
1977-03-08 18   23.7   112.9                  30          
1977-03-09 00   24.1   112.5                  25          
1977-03-09 06   23.8   111.9                  25          
1977-03-09 12   22.7   111.2                  25          
Winds are 1-min average.

Tropical cyclone tracks developed by Michael Bath using data from the Joint Typhoon Warning Centre Best Tracks and Google Maps.


[Australian Severe Weather index] [Copyright Notice] [Email Contacts] [Search This Site] [Privacy Policy]
Document: tropical_cyclone_karen.htm Updated: 18 September 2016